createdAt,value
2018-05-02T00:00:44.280Z,7.30
2018-05-02T00:01:47.575Z,7.40
2018-05-02T00:02:50.120Z,7.30
2018-05-02T00:03:53.402Z,7.30
2018-05-02T00:04:56.823Z,7.30
2018-05-02T00:05:59.349Z,7.30
2018-05-02T00:07:01.877Z,7.30
2018-05-02T00:08:04.441Z,7.20
2018-05-02T00:09:06.954Z,7.20
2018-05-02T00:10:10.227Z,7.20
2018-05-02T00:11:12.763Z,7.20
2018-05-02T00:12:15.278Z,7.10
2018-05-02T00:13:17.844Z,7.10
2018-05-02T00:14:21.132Z,7.00
2018-05-02T00:15:23.684Z,7.00
2018-05-02T00:16:26.963Z,6.90
2018-05-02T00:17:30.252Z,6.80
2018-05-02T00:18:33.546Z,6.80
2018-05-02T00:19:36.827Z,6.80
2018-05-02T00:20:40.140Z,6.80
2018-05-02T00:21:42.653Z,6.80
2018-05-02T00:22:45.163Z,6.80
2018-05-02T00:23:47.685Z,6.80
2018-05-02T00:24:50.235Z,6.80
2018-05-02T00:25:52.752Z,6.80
2018-05-02T00:26:55.281Z,6.80
2018-05-02T00:27:57.842Z,6.80
2018-05-02T00:29:00.400Z,6.80
2018-05-02T00:30:02.918Z,6.80
2018-05-02T00:31:05.426Z,6.80
2018-05-02T00:32:07.943Z,6.80
2018-05-02T00:33:11.225Z,6.70
2018-05-02T00:34:14.556Z,6.70
2018-05-02T00:35:17.071Z,6.70
2018-05-02T00:36:20.343Z,6.60
2018-05-02T00:37:23.636Z,6.60
2018-05-02T00:38:26.931Z,6.60
2018-05-02T00:39:29.490Z,6.50
2018-05-02T00:40:32.802Z,6.50
2018-05-02T00:41:35.319Z,6.50
2018-05-02T00:42:37.841Z,6.50
2018-05-02T00:43:40.369Z,6.50
2018-05-02T00:44:43.659Z,6.50
2018-05-02T00:45:46.975Z,6.40
2018-05-02T00:46:49.500Z,6.40
2018-05-02T00:47:52.779Z,6.40
2018-05-02T00:49:07.885Z,6.30
2018-05-02T00:50:10.415Z,6.30
2018-05-02T00:51:13.706Z,6.30
2018-05-02T00:52:16.247Z,6.30
2018-05-02T00:53:18.760Z,6.30
2018-05-02T00:54:21.315Z,6.30
2018-05-02T00:55:23.840Z,6.30
2018-05-02T00:56:26.365Z,6.20
2018-05-02T00:57:28.900Z,6.20
2018-05-02T00:58:31.420Z,6.20
2018-05-02T00:59:33.970Z,6.20
2018-05-02T01:00:36.482Z,6.20
2018-05-02T01:01:39.811Z,6.20
2018-05-02T01:02:42.328Z,6.10
2018-05-02T01:03:45.625Z,6.10
2018-05-02T01:04:48.169Z,6.10
2018-05-02T01:05:50.686Z,6.00
2018-05-02T01:06:53.247Z,5.80
2018-05-02T01:07:55.766Z,5.90
2018-05-02T01:08:58.299Z,5.90
2018-05-02T01:10:00.866Z,5.90
2018-05-02T01:11:03.389Z,5.90
2018-05-02T01:12:06.679Z,5.90
2018-05-02T01:13:09.958Z,6.00
2018-05-02T01:14:13.248Z,6.00
2018-05-02T01:15:15.793Z,6.00
2018-05-02T01:16:19.071Z,6.00
2018-05-02T01:17:21.592Z,6.00
2018-05-02T01:18:24.116Z,6.00
2018-05-02T01:19:27.406Z,6.00
2018-05-02T01:20:30.738Z,6.00
2018-05-02T01:21:33.287Z,6.00
2018-05-02T01:22:35.811Z,6.00
2018-05-02T01:23:38.324Z,6.00
2018-05-02T01:24:40.852Z,5.90
2018-05-02T01:25:44.179Z,5.90
2018-05-02T01:26:46.704Z,5.90
2018-05-02T01:27:49.990Z,5.90
2018-05-02T01:28:52.512Z,5.90
2018-05-02T01:29:55.034Z,5.90
2018-05-02T01:30:57.602Z,5.90
2018-05-02T01:32:00.119Z,6.00
2018-05-02T01:33:02.632Z,6.00
2018-05-02T01:34:05.152Z,6.10
2018-05-02T01:35:07.668Z,6.10
2018-05-02T01:36:10.311Z,6.10
2018-05-02T01:37:13.592Z,6.00
2018-05-02T01:38:16.879Z,5.90
2018-05-02T01:39:20.175Z,5.80
2018-05-02T01:40:23.459Z,5.80
2018-05-02T01:41:26.768Z,5.80
2018-05-02T01:42:29.292Z,5.80
2018-05-02T01:43:31.806Z,5.80
2018-05-02T01:44:34.321Z,5.80
2018-05-02T01:45:36.867Z,5.70
2018-05-02T01:46:39.390Z,5.60
2018-05-02T01:47:41.908Z,5.60
2018-05-02T01:48:56.232Z,5.50
2018-05-02T01:49:58.765Z,5.50
2018-05-02T01:51:01.316Z,5.40
2018-05-02T01:52:03.849Z,5.30
2018-05-02T01:53:06.399Z,5.40
2018-05-02T01:54:08.930Z,5.40
2018-05-02T01:55:11.473Z,5.50
2018-05-02T01:56:14.755Z,5.70
2018-05-02T01:57:18.041Z,5.70
2018-05-02T01:58:21.354Z,5.80
2018-05-02T01:59:23.868Z,5.70
2018-05-02T02:00:26.393Z,5.80
2018-05-02T02:01:28.952Z,5.80
2018-05-02T02:02:31.500Z,5.80
2018-05-02T02:03:34.058Z,5.80
2018-05-02T02:04:37.336Z,5.80
2018-05-02T02:05:40.621Z,5.80
2018-05-02T02:06:43.920Z,5.90
2018-05-02T02:07:46.485Z,5.90
2018-05-02T02:08:49.054Z,5.90
2018-05-02T02:09:51.575Z,5.80
2018-05-02T02:10:54.137Z,5.80
2018-05-02T02:11:56.661Z,5.80
2018-05-02T02:12:59.221Z,5.70
2018-05-02T02:14:01.747Z,5.70
2018-05-02T02:15:04.263Z,5.70
2018-05-02T02:16:06.781Z,5.70
2018-05-02T02:17:09.300Z,5.80
2018-05-02T02:18:11.845Z,5.80
2018-05-02T02:19:14.390Z,5.70
2018-05-02T02:20:17.675Z,5.70
2018-05-02T02:21:20.954Z,5.60
2018-05-02T02:22:23.469Z,5.60
2018-05-02T02:23:25.977Z,5.60
2018-05-02T02:24:28.563Z,5.50
2018-05-02T02:25:31.861Z,5.40
2018-05-02T02:26:34.378Z,5.40
2018-05-02T02:27:36.905Z,5.40
2018-05-02T02:28:39.430Z,5.30
2018-05-02T02:29:41.998Z,5.30
2018-05-02T02:30:44.523Z,5.20
2018-05-02T02:31:47.813Z,5.20
2018-05-02T02:32:50.338Z,5.20
2018-05-02T02:33:52.854Z,5.20
2018-05-02T02:34:55.401Z,5.20
2018-05-02T02:35:57.970Z,5.20
2018-05-02T02:37:00.494Z,5.10
2018-05-02T02:38:03.776Z,5.10
2018-05-02T02:39:07.060Z,5.00
2018-05-02T02:40:10.392Z,5.00
2018-05-02T02:41:12.942Z,5.00
2018-05-02T02:42:15.451Z,5.00
2018-05-02T02:43:17.985Z,5.10
2018-05-02T02:44:20.505Z,5.10
2018-05-02T02:45:23.792Z,5.20
2018-05-02T02:46:27.108Z,5.20
2018-05-02T02:47:29.630Z,5.20
2018-05-02T02:48:32.919Z,5.20
2018-05-02T02:49:36.214Z,5.20
2018-05-02T02:50:39.501Z,5.10
2018-05-02T02:51:42.823Z,5.10
2018-05-02T02:52:45.344Z,5.10
2018-05-02T02:53:48.626Z,5.10
2018-05-02T02:54:51.915Z,5.10
2018-05-02T02:55:55.232Z,5.10
2018-05-02T02:56:57.796Z,5.10
2018-05-02T02:58:00.308Z,5.10
2018-05-02T02:59:02.836Z,5.10
2018-05-02T03:00:05.372Z,5.10
2018-05-02T03:01:07.904Z,5.20
2018-05-02T03:02:10.455Z,5.20
2018-05-02T03:03:12.967Z,5.20
2018-05-02T03:04:16.243Z,5.20
2018-05-02T03:05:19.538Z,5.20
2018-05-02T03:06:22.060Z,5.20
2018-05-02T03:07:24.613Z,5.20
2018-05-02T03:08:27.147Z,5.20
2018-05-02T03:09:29.660Z,5.20
2018-05-02T03:10:32.208Z,5.20
2018-05-02T03:11:34.726Z,5.20
2018-05-02T03:12:38.049Z,5.10
2018-05-02T03:13:40.567Z,5.10
2018-05-02T03:14:43.889Z,5.10
2018-05-02T03:15:46.400Z,5.10
2018-05-02T03:16:48.915Z,5.10
2018-05-02T03:17:51.436Z,5.10
2018-05-02T03:18:54.014Z,5.10
2018-05-02T03:19:57.297Z,5.00
2018-05-02T03:21:00.584Z,4.90
2018-05-02T03:22:03.875Z,4.80
2018-05-02T03:23:07.167Z,4.70
2018-05-02T03:24:09.725Z,4.70
2018-05-02T03:25:13.021Z,4.70
2018-05-02T03:26:15.536Z,4.60
2018-05-02T03:27:18.061Z,4.60
2018-05-02T03:28:20.576Z,4.70
2018-05-02T03:29:23.119Z,4.70
2018-05-02T03:30:25.630Z,4.70
2018-05-02T03:31:28.950Z,4.80
2018-05-02T03:32:31.471Z,4.80
2018-05-02T03:33:33.988Z,4.90
2018-05-02T03:34:36.511Z,4.90
2018-05-02T03:35:39.787Z,4.90
2018-05-02T03:36:42.340Z,4.90
2018-05-02T03:37:44.860Z,4.90
2018-05-02T03:38:47.395Z,4.90
2018-05-02T03:39:50.678Z,4.90
2018-05-02T03:40:53.963Z,5.00
2018-05-02T03:41:57.301Z,5.00
2018-05-02T03:42:59.816Z,4.90
2018-05-02T03:44:03.097Z,4.90
2018-05-02T03:45:06.383Z,5.00
2018-05-02T03:46:09.667Z,4.90
2018-05-02T03:47:12.984Z,4.90
2018-05-02T03:48:15.508Z,4.90
2018-05-02T03:49:18.786Z,5.00
2018-05-02T03:50:21.359Z,5.00
2018-05-02T03:51:24.640Z,4.90
2018-05-02T03:52:27.160Z,4.90
2018-05-02T03:53:29.703Z,4.90
2018-05-02T03:54:32.230Z,4.90
2018-05-02T03:55:34.793Z,4.80
2018-05-02T03:56:37.316Z,4.80
2018-05-02T03:57:39.842Z,4.80
2018-05-02T03:58:43.131Z,4.70
2018-05-02T03:59:58.346Z,4.70
2018-05-02T04:01:12.827Z,4.70
2018-05-02T04:02:27.936Z,4.70
2018-05-02T04:03:42.287Z,4.70
2018-05-02T04:04:56.641Z,4.70
2018-05-02T04:06:11.011Z,4.70
2018-05-02T04:07:14.225Z,4.80
2018-05-02T04:08:16.753Z,4.80
2018-05-02T04:09:19.272Z,4.80
2018-05-02T04:10:21.828Z,4.80
2018-05-02T04:11:24.406Z,4.80
2018-05-02T04:12:26.933Z,4.80
2018-05-02T04:13:29.456Z,4.80
2018-05-02T04:14:31.985Z,4.90
2018-05-02T04:15:34.549Z,4.80
2018-05-02T04:16:37.845Z,4.70
2018-05-02T04:17:40.369Z,4.70
2018-05-02T04:18:42.895Z,4.60
2018-05-02T04:19:45.427Z,4.60
2018-05-02T04:20:48.761Z,4.60
2018-05-02T04:21:51.279Z,4.60
2018-05-02T04:22:54.605Z,4.50
2018-05-02T04:23:57.135Z,4.50
2018-05-02T04:24:59.655Z,4.50
2018-05-02T04:26:02.245Z,4.50
2018-05-02T04:27:04.701Z,4.50
2018-05-02T04:28:07.251Z,4.50
2018-05-02T04:29:10.547Z,4.60
2018-05-02T04:30:13.104Z,4.60
2018-05-02T04:31:15.624Z,4.70
2018-05-02T04:32:18.147Z,4.70
2018-05-02T04:33:20.659Z,4.80
2018-05-02T04:34:23.185Z,4.80
2018-05-02T04:35:25.752Z,4.70
2018-05-02T04:36:28.311Z,4.70
2018-05-02T04:37:30.838Z,4.70
2018-05-02T04:38:33.363Z,4.70
2018-05-02T04:39:36.656Z,4.80
2018-05-02T04:40:39.980Z,4.90
2018-05-02T04:41:42.514Z,4.90
2018-05-02T04:42:45.029Z,5.00
2018-05-02T04:43:47.552Z,5.00
2018-05-02T04:44:50.072Z,5.10
2018-05-02T04:45:52.629Z,5.10
2018-05-02T04:46:55.161Z,5.10
2018-05-02T04:47:57.684Z,5.10
2018-05-02T04:49:00.212Z,5.20
2018-05-02T04:50:02.732Z,5.20
2018-05-02T04:51:06.077Z,5.30
2018-05-02T04:52:08.612Z,5.30
2018-05-02T04:53:11.180Z,5.30
2018-05-02T04:54:13.695Z,5.30
2018-05-02T04:55:16.248Z,5.30
2018-05-02T04:56:18.768Z,5.40
2018-05-02T04:57:21.287Z,5.40
2018-05-02T04:58:23.800Z,5.50
2018-05-02T04:59:26.371Z,5.60
2018-05-02T05:00:28.923Z,5.70
2018-05-02T05:01:31.440Z,5.70
2018-05-02T05:02:33.968Z,5.60
2018-05-02T05:03:36.501Z,5.60
2018-05-02T05:04:39.841Z,5.70
2018-05-02T05:05:42.358Z,5.70
2018-05-02T05:06:45.636Z,5.80
2018-05-02T05:07:48.915Z,5.80
2018-05-02T05:08:52.205Z,5.90
2018-05-02T05:09:55.523Z,6.00
2018-05-02T05:10:58.034Z,6.00
2018-05-02T05:12:00.547Z,5.90
2018-05-02T05:13:03.104Z,6.00
2018-05-02T05:14:05.619Z,6.00
2018-05-02T05:15:08.142Z,6.00
2018-05-02T05:16:10.656Z,5.80
2018-05-02T05:17:13.184Z,5.80
2018-05-02T05:18:15.742Z,5.90
2018-05-02T05:19:18.269Z,5.90
2018-05-02T05:20:20.800Z,6.00
2018-05-02T05:21:23.320Z,6.10
2018-05-02T05:22:26.598Z,6.20
2018-05-02T05:23:30.886Z,6.20
2018-05-02T05:24:33.420Z,6.20
2018-05-02T05:25:35.945Z,6.30
2018-05-02T05:26:39.233Z,6.40
2018-05-02T05:27:42.552Z,6.40
2018-05-02T05:28:45.123Z,6.40
2018-05-02T05:29:47.645Z,6.50
2018-05-02T05:30:50.937Z,6.50
2018-05-02T05:31:53.475Z,6.50
2018-05-02T05:32:56.004Z,6.50
2018-05-02T05:33:58.564Z,6.50
2018-05-02T05:35:01.085Z,6.60
2018-05-02T05:36:04.375Z,6.70
2018-05-02T05:37:07.655Z,6.70
2018-05-02T05:38:10.975Z,6.70
2018-05-02T05:39:13.491Z,6.70
2018-05-02T05:40:16.033Z,6.60
2018-05-02T05:41:19.313Z,6.50
2018-05-02T05:42:21.830Z,6.50
2018-05-02T05:43:25.157Z,6.50
2018-05-02T05:44:27.690Z,6.40
2018-05-02T05:45:30.263Z,6.50
2018-05-02T05:46:32.800Z,6.60
2018-05-02T05:47:36.123Z,6.50
2018-05-02T05:48:38.639Z,6.50
2018-05-02T05:49:41.168Z,6.50
2018-05-02T05:50:43.690Z,6.50
2018-05-02T05:51:47.024Z,6.30
2018-05-02T05:52:49.539Z,6.30
2018-05-02T05:53:52.889Z,6.30
2018-05-02T05:54:55.413Z,6.30
2018-05-02T05:55:57.931Z,6.30
2018-05-02T05:57:00.480Z,6.20
2018-05-02T05:58:02.995Z,6.30
2018-05-02T05:59:06.333Z,6.40
2018-05-02T06:00:08.848Z,6.40
2018-05-02T06:01:12.142Z,6.70
2018-05-02T06:02:14.752Z,6.70
2018-05-02T06:03:17.276Z,6.80
2018-05-02T06:04:19.799Z,6.80
2018-05-02T06:05:22.313Z,6.80
2018-05-02T06:06:24.832Z,6.90
2018-05-02T06:07:27.394Z,7.00
2018-05-02T06:08:29.925Z,7.10
2018-05-02T06:09:32.446Z,7.10
2018-05-02T06:10:35.728Z,7.20
2018-05-02T06:11:39.007Z,7.20
2018-05-02T06:12:41.634Z,7.20
2018-05-02T06:13:44.090Z,7.20
2018-05-02T06:14:46.606Z,7.20
2018-05-02T06:15:49.120Z,7.20
2018-05-02T06:16:51.672Z,7.20
2018-05-02T06:17:54.191Z,7.20
2018-05-02T06:18:56.707Z,7.10
2018-05-02T06:19:59.219Z,7.00
2018-05-02T06:21:01.747Z,7.00
2018-05-02T06:22:04.315Z,6.90
2018-05-02T06:23:07.675Z,7.10
2018-05-02T06:24:10.224Z,7.10
2018-05-02T06:25:13.508Z,7.20
2018-05-02T06:26:16.833Z,7.10
2018-05-02T06:27:19.456Z,7.10
2018-05-02T06:28:22.013Z,7.20
2018-05-02T06:29:24.546Z,7.30
2018-05-02T06:30:27.068Z,7.30
2018-05-02T06:31:30.347Z,7.50
2018-05-02T06:32:33.649Z,7.60
2018-05-02T06:33:36.205Z,7.60
2018-05-02T06:34:39.493Z,7.60
2018-05-02T06:35:42.812Z,7.60
2018-05-02T06:36:45.341Z,7.60
2018-05-02T06:37:48.067Z,7.70
2018-05-02T06:38:50.616Z,7.80
2018-05-02T06:39:53.142Z,7.80
2018-05-02T06:40:56.436Z,7.90
2018-05-02T06:41:58.962Z,7.90
2018-05-02T06:43:01.526Z,7.90
2018-05-02T06:44:04.088Z,7.90
2018-05-02T06:45:06.610Z,7.90
2018-05-02T06:46:09.141Z,7.90
2018-05-02T06:47:11.675Z,8.00
2018-05-02T06:48:14.214Z,8.00
2018-05-02T06:49:16.876Z,8.00
2018-05-02T06:50:19.330Z,8.00
2018-05-02T06:51:22.615Z,8.10
2018-05-02T06:52:25.129Z,8.10
2018-05-02T06:53:27.645Z,8.20
2018-05-02T06:54:30.196Z,8.20
2018-05-02T06:55:33.488Z,8.30
2018-05-02T06:56:36.807Z,8.30
2018-05-02T06:57:39.334Z,8.20
2018-05-02T06:58:42.624Z,8.20
2018-05-02T06:59:45.913Z,8.20
2018-05-02T07:00:48.460Z,8.20
2018-05-02T07:01:51.062Z,8.30
2018-05-02T07:02:53.583Z,8.30
2018-05-02T07:03:56.888Z,8.40
2018-05-02T07:05:00.176Z,8.50
2018-05-02T07:06:02.705Z,8.40
2018-05-02T07:07:05.315Z,8.40
2018-05-02T07:08:08.586Z,8.50
2018-05-02T07:09:11.869Z,8.60
2018-05-02T07:10:15.155Z,8.70
2018-05-02T07:11:18.436Z,8.80
2018-05-02T07:12:21.760Z,8.80
2018-05-02T07:13:24.309Z,8.80
2018-05-02T07:14:26.846Z,8.70
2018-05-02T07:15:30.133Z,8.20
2018-05-02T07:16:33.476Z,8.20
2018-05-02T07:17:36.003Z,8.20
2018-05-02T07:18:38.533Z,8.20
2018-05-02T07:19:41.046Z,8.20
2018-05-02T07:20:43.564Z,8.30
2018-05-02T07:21:46.120Z,8.40
2018-05-02T07:22:48.648Z,8.40
2018-05-02T07:23:51.204Z,8.40
2018-05-02T07:24:53.768Z,8.40
2018-05-02T07:25:56.288Z,8.50
2018-05-02T07:26:58.811Z,8.70
2018-05-02T07:28:01.372Z,8.80
2018-05-02T07:29:03.893Z,9.00
2018-05-02T07:30:06.425Z,9.10
2018-05-02T07:31:08.950Z,9.20
2018-05-02T07:32:12.229Z,9.20
2018-05-02T07:33:15.547Z,9.20
2018-05-02T07:34:18.073Z,9.20
2018-05-02T07:35:21.369Z,9.40
2018-05-02T07:36:24.648Z,9.40
2018-05-02T07:37:27.941Z,9.50
2018-05-02T07:38:30.507Z,9.50
2018-05-02T07:39:33.030Z,9.50
2018-05-02T07:40:35.589Z,9.50
2018-05-02T07:41:38.108Z,9.40
2018-05-02T07:42:40.640Z,9.40
2018-05-02T07:43:43.152Z,9.50
2018-05-02T07:44:45.675Z,9.60
2018-05-02T07:45:48.230Z,9.70
2018-05-02T07:46:50.741Z,9.90
2018-05-02T07:47:53.258Z,9.70
2018-05-02T07:48:55.816Z,9.70
2018-05-02T07:49:58.336Z,9.70
2018-05-02T07:51:00.861Z,9.80
2018-05-02T07:52:03.416Z,10.00
2018-05-02T07:53:05.944Z,9.90
2018-05-02T07:54:08.461Z,9.80
2018-05-02T07:55:10.986Z,9.80
2018-05-02T07:56:13.536Z,9.90
2018-05-02T07:57:16.061Z,10.10
2018-05-02T07:58:18.580Z,10.30
2018-05-02T07:59:21.146Z,10.30
2018-05-02T08:00:23.676Z,10.40
2018-05-02T08:01:26.964Z,10.60
2018-05-02T08:02:30.284Z,10.80
2018-05-02T08:03:32.803Z,10.80
2018-05-02T08:04:35.319Z,10.80
2018-05-02T08:05:37.851Z,10.90
2018-05-02T08:06:41.131Z,10.90
2018-05-02T08:07:44.465Z,10.90
2018-05-02T08:08:46.987Z,10.80
2018-05-02T08:09:50.296Z,10.80
2018-05-02T08:10:52.820Z,10.80
2018-05-02T08:11:55.351Z,10.70
2018-05-02T08:12:57.929Z,10.70
2018-05-02T08:14:00.445Z,10.80
2018-05-02T08:15:03.027Z,10.90
2018-05-02T08:16:05.551Z,10.90
2018-05-02T08:17:08.166Z,11.20
2018-05-02T08:18:10.729Z,11.30
2018-05-02T08:19:13.243Z,11.50
2018-05-02T08:20:15.769Z,11.60
2018-05-02T08:21:18.301Z,11.60
2018-05-02T08:22:21.635Z,11.80
2018-05-02T08:23:24.163Z,11.80
2018-05-02T08:24:26.688Z,12.00
2018-05-02T08:25:29.215Z,12.20
2018-05-02T08:26:31.739Z,12.30
2018-05-02T08:27:35.099Z,12.20
2018-05-02T08:28:37.636Z,12.20
2018-05-02T08:29:40.170Z,12.00
2018-05-02T08:30:43.460Z,12.00
2018-05-02T08:31:45.992Z,11.90
2018-05-02T08:32:48.625Z,12.00
2018-05-02T08:33:51.176Z,12.10
2018-05-02T08:34:53.723Z,12.30
2018-05-02T08:35:57.011Z,12.70
2018-05-02T08:36:59.540Z,12.60
2018-05-02T08:38:02.068Z,12.80
2018-05-02T08:39:04.626Z,12.90
2018-05-02T08:40:07.216Z,12.90
2018-05-02T08:41:09.752Z,12.90
2018-05-02T08:42:12.273Z,12.80
2018-05-02T08:43:14.814Z,12.90
2018-05-02T08:44:17.396Z,12.90
2018-05-02T08:45:19.920Z,13.00
2018-05-02T08:46:22.499Z,13.10
2018-05-02T08:47:25.043Z,13.10
2018-05-02T08:48:27.569Z,13.10
2018-05-02T08:49:30.145Z,13.10
2018-05-02T08:50:32.672Z,13.10
2018-05-02T08:51:35.218Z,13.20
2018-05-02T08:52:37.757Z,13.30
2018-05-02T08:53:41.049Z,13.30
2018-05-02T08:54:44.383Z,13.30
2018-05-02T08:55:46.923Z,13.30
2018-05-02T08:56:49.443Z,13.30
2018-05-02T08:57:51.978Z,13.30
2018-05-02T08:58:54.504Z,13.30
2018-05-02T08:59:57.073Z,13.20
2018-05-02T09:00:59.613Z,13.10
2018-05-02T09:02:02.188Z,13.20
2018-05-02T09:03:04.712Z,13.20
2018-05-02T09:04:07.232Z,13.20
2018-05-02T09:05:10.519Z,13.30
2018-05-02T09:06:13.045Z,13.30
2018-05-02T09:07:15.640Z,13.60
2018-05-02T09:08:18.943Z,13.90
2018-05-02T09:09:21.477Z,13.90
2018-05-02T09:10:23.992Z,14.00
2018-05-02T09:11:26.520Z,14.10
2018-05-02T09:12:29.217Z,14.00
2018-05-02T09:13:31.787Z,13.90
2018-05-02T09:14:34.329Z,13.90
2018-05-02T09:15:37.697Z,14.10
2018-05-02T09:16:40.193Z,14.10
2018-05-02T09:17:42.758Z,14.10
2018-05-02T09:18:45.292Z,14.20
2018-05-02T09:19:47.836Z,14.30
2018-05-02T09:20:50.369Z,14.50
2018-05-02T09:21:52.888Z,14.70
2018-05-02T09:22:55.504Z,14.70
2018-05-02T09:23:58.024Z,14.80
2018-05-02T09:25:00.552Z,14.90
2018-05-02T09:26:03.071Z,15.00
2018-05-02T09:27:05.610Z,14.90
2018-05-02T09:28:08.159Z,14.80
2018-05-02T09:29:11.446Z,15.00
2018-05-02T09:30:14.005Z,15.00
2018-05-02T09:31:16.523Z,15.00
2018-05-02T09:32:19.812Z,14.90
2018-05-02T09:33:23.098Z,15.00
2018-05-02T09:34:25.620Z,14.90
2018-05-02T09:35:28.176Z,15.00
2018-05-02T09:36:30.695Z,14.90
2018-05-02T09:37:33.989Z,14.80
2018-05-02T09:38:36.530Z,14.80
2018-05-02T09:39:39.866Z,14.60
2018-05-02T09:40:42.399Z,14.60
2018-05-02T09:41:44.977Z,14.70
2018-05-02T09:42:47.515Z,14.70
2018-05-02T09:43:50.809Z,14.80
2018-05-02T09:44:54.113Z,14.90
2018-05-02T09:45:56.642Z,14.90
2018-05-02T09:46:59.205Z,14.90
2018-05-02T09:48:01.732Z,15.00
2018-05-02T09:49:04.283Z,15.00
2018-05-02T09:50:06.812Z,14.90
2018-05-02T09:51:10.111Z,14.90
2018-05-02T09:52:13.433Z,15.00
2018-05-02T09:53:15.952Z,15.00
2018-05-02T09:54:19.243Z,15.00
2018-05-02T09:55:22.612Z,15.10
2018-05-02T09:56:25.139Z,15.00
2018-05-02T09:57:27.700Z,15.00
2018-05-02T09:58:30.214Z,15.10
2018-05-02T09:59:33.540Z,15.20
2018-05-02T10:00:36.093Z,15.10
2018-05-02T10:01:38.656Z,15.20
2018-05-02T10:02:41.189Z,15.30
2018-05-02T10:03:43.709Z,15.30
2018-05-02T10:04:46.238Z,15.30
2018-05-02T10:05:48.773Z,15.30
2018-05-02T10:06:51.336Z,15.50
2018-05-02T10:07:53.866Z,15.60
2018-05-02T10:08:56.392Z,15.60
2018-05-02T10:09:58.911Z,15.60
2018-05-02T10:11:01.436Z,15.50
2018-05-02T10:12:04.770Z,15.50
2018-05-02T10:13:07.293Z,15.50
2018-05-02T10:14:09.819Z,15.60
2018-05-02T10:15:12.346Z,15.70
2018-05-02T10:16:14.868Z,15.90
2018-05-02T10:17:18.248Z,16.00
2018-05-02T10:18:20.801Z,15.90
2018-05-02T10:19:23.344Z,16.00
2018-05-02T10:20:25.899Z,16.00
2018-05-02T10:21:28.422Z,15.90
2018-05-02T10:22:30.945Z,15.90
2018-05-02T10:23:33.499Z,15.80
2018-05-02T10:24:36.045Z,15.70
2018-05-02T10:25:38.563Z,15.60
2018-05-02T10:26:41.090Z,15.50
2018-05-02T10:27:43.604Z,15.70
2018-05-02T10:28:46.172Z,15.80
2018-05-02T10:29:48.693Z,15.80
2018-05-02T10:30:51.244Z,15.90
2018-05-02T10:31:53.766Z,16.00
2018-05-02T10:32:56.288Z,16.00
2018-05-02T10:33:58.917Z,16.00
2018-05-02T10:35:01.412Z,16.00
2018-05-02T10:36:03.927Z,16.00
2018-05-02T10:37:06.457Z,16.00
2018-05-02T10:38:08.972Z,15.90
2018-05-02T10:39:11.535Z,16.00
2018-05-02T10:40:14.066Z,16.00
2018-05-02T10:41:16.620Z,16.00
2018-05-02T10:42:19.143Z,16.10
2018-05-02T10:43:22.424Z,16.00
2018-05-02T10:44:24.983Z,16.00
2018-05-02T10:45:27.499Z,16.00
2018-05-02T10:46:30.073Z,16.00
2018-05-02T10:47:32.597Z,15.90
2018-05-02T10:48:35.128Z,15.80
2018-05-02T10:49:37.668Z,15.80
2018-05-02T10:50:40.190Z,15.90
2018-05-02T10:51:42.749Z,15.90
2018-05-02T10:52:45.262Z,16.00
2018-05-02T10:53:47.783Z,16.00
2018-05-02T10:54:50.313Z,16.10
2018-05-02T10:55:52.863Z,16.00
2018-05-02T10:56:55.427Z,16.00
2018-05-02T10:57:57.950Z,16.00
2018-05-02T10:59:01.253Z,16.00
2018-05-02T11:00:04.532Z,16.00
2018-05-02T11:01:07.835Z,16.10
2018-05-02T11:03:19.424Z,16.20
2018-05-02T11:04:21.949Z,16.20
2018-05-02T11:05:24.468Z,16.20
2018-05-02T11:06:27.025Z,16.20
2018-05-02T11:07:29.560Z,16.20
2018-05-02T11:08:32.852Z,16.20
2018-05-02T11:09:36.145Z,16.30
2018-05-02T11:10:38.687Z,16.30
2018-05-02T11:11:41.254Z,16.40
2018-05-02T11:12:43.771Z,16.50
2018-05-02T11:13:46.289Z,16.40
2018-05-02T11:14:49.576Z,16.40
2018-05-02T11:15:52.860Z,16.40
2018-05-02T11:16:56.194Z,16.50
2018-05-02T11:17:58.725Z,16.50
2018-05-02T11:19:01.252Z,16.50
2018-05-02T11:20:03.763Z,16.50
2018-05-02T11:21:06.280Z,16.60
2018-05-02T11:22:08.836Z,16.60
2018-05-02T11:23:11.359Z,16.80
2018-05-02T11:24:13.885Z,16.90
2018-05-02T11:25:16.402Z,16.90
2018-05-02T11:26:18.927Z,17.00
2018-05-02T11:27:21.485Z,16.90
2018-05-02T11:28:24.068Z,16.70
2018-05-02T11:29:26.559Z,16.70
2018-05-02T11:30:29.079Z,16.80
2018-05-02T11:31:31.610Z,16.60
2018-05-02T11:32:34.190Z,16.60
2018-05-02T11:33:36.748Z,16.50
2018-05-02T11:34:39.269Z,16.60
2018-05-02T11:35:41.811Z,16.60
2018-05-02T11:36:44.329Z,16.60
2018-05-02T11:37:46.871Z,16.60
2018-05-02T11:38:50.230Z,16.70
2018-05-02T11:39:52.752Z,16.70
2018-05-02T11:40:55.278Z,16.60
2018-05-02T11:41:57.791Z,16.70
2018-05-02T11:43:00.395Z,16.60
2018-05-02T11:44:02.898Z,16.70
2018-05-02T11:45:05.449Z,16.70
2018-05-02T11:46:08.742Z,16.60
2018-05-02T11:47:12.068Z,16.50
2018-05-02T11:48:14.583Z,16.50
2018-05-02T11:49:17.904Z,16.50
2018-05-02T11:50:20.431Z,16.50
2018-05-02T11:51:23.758Z,16.40
2018-05-02T11:52:26.284Z,16.40
2018-05-02T11:53:29.569Z,16.60
2018-05-02T11:54:32.872Z,16.70
2018-05-02T11:55:35.429Z,16.70
2018-05-02T11:56:38.721Z,16.80
2018-05-02T11:57:41.303Z,16.70
2018-05-02T11:58:43.831Z,16.70
2018-05-02T11:59:47.144Z,16.60
2018-05-02T12:00:49.713Z,16.50
2018-05-02T12:01:52.241Z,16.60
2018-05-02T12:02:55.666Z,16.50
2018-05-02T12:03:58.205Z,16.50
2018-05-02T12:05:01.490Z,16.60
2018-05-02T12:06:04.827Z,16.60
2018-05-02T12:07:07.356Z,16.60
2018-05-02T12:08:09.890Z,16.60
2018-05-02T12:09:12.423Z,16.60
2018-05-02T12:10:14.944Z,16.70
2018-05-02T12:11:18.267Z,16.80
2018-05-02T12:12:20.791Z,16.70
2018-05-02T12:13:23.325Z,16.90
2018-05-02T12:14:25.845Z,16.90
2018-05-02T12:15:28.367Z,17.00
2018-05-02T12:16:30.920Z,17.00
2018-05-02T12:17:33.451Z,17.00
2018-05-02T12:18:35.975Z,17.00
2018-05-02T12:19:38.513Z,16.90
2018-05-02T12:20:41.037Z,17.00
2018-05-02T12:21:43.634Z,17.00
2018-05-02T12:22:46.163Z,16.90
2018-05-02T12:23:48.680Z,17.00
2018-05-02T12:24:51.199Z,17.00
2018-05-02T12:25:53.739Z,16.90
2018-05-02T12:26:57.055Z,16.90
2018-05-02T12:27:59.618Z,16.90
2018-05-02T12:29:02.180Z,16.80
2018-05-02T12:30:04.712Z,16.70
2018-05-02T12:31:07.239Z,16.80
2018-05-02T12:32:09.755Z,16.80
2018-05-02T12:33:13.059Z,16.80
2018-05-02T12:34:15.629Z,16.80
2018-05-02T12:35:18.167Z,16.90
2018-05-02T12:36:20.684Z,17.00
2018-05-02T12:37:23.214Z,17.10
2018-05-02T12:38:26.511Z,17.20
2018-05-02T12:39:29.100Z,17.10
2018-05-02T12:40:31.640Z,17.20
2018-05-02T12:41:34.180Z,17.20
2018-05-02T12:42:36.711Z,17.10
2018-05-02T12:43:39.281Z,17.00
2018-05-02T12:44:41.804Z,17.00
2018-05-02T12:45:45.096Z,17.10
2018-05-02T12:46:47.716Z,17.10
2018-05-02T12:47:50.928Z,17.30
2018-05-02T12:48:54.258Z,17.40
2018-05-02T12:49:56.779Z,17.40
2018-05-02T12:51:00.067Z,17.70
2018-05-02T12:52:03.400Z,17.50
2018-05-02T12:53:05.922Z,17.50
2018-05-02T12:54:08.457Z,17.40
2018-05-02T12:55:10.984Z,17.30
2018-05-02T12:56:13.540Z,17.40
2018-05-02T12:57:16.091Z,17.30
2018-05-02T12:58:18.622Z,17.50
2018-05-02T12:59:21.144Z,17.60
2018-05-02T13:00:23.664Z,17.70
2018-05-02T13:01:26.194Z,17.90
2018-05-02T13:02:28.766Z,18.10
2018-05-02T13:03:31.280Z,18.00
2018-05-02T13:04:34.563Z,18.10
2018-05-02T13:05:37.884Z,18.00
2018-05-02T13:06:40.404Z,18.00
2018-05-02T13:07:43.696Z,17.70
2018-05-02T13:08:46.981Z,17.70
2018-05-02T13:09:50.298Z,17.80
2018-05-02T13:10:52.815Z,17.70
2018-05-02T13:11:55.335Z,17.80
2018-05-02T13:12:57.903Z,17.70
2018-05-02T13:14:00.422Z,17.60
2018-05-02T13:15:03.737Z,17.50
2018-05-02T13:16:06.288Z,17.50
2018-05-02T13:17:08.820Z,17.60
2018-05-02T13:18:11.349Z,17.70
2018-05-02T13:19:13.887Z,17.70
2018-05-02T13:20:16.403Z,17.80
2018-05-02T13:21:18.955Z,17.70
2018-05-02T13:22:21.525Z,17.60
2018-05-02T13:23:24.090Z,17.40
2018-05-02T13:24:26.843Z,17.30
2018-05-02T13:25:29.415Z,17.20
2018-05-02T13:26:31.959Z,17.10
2018-05-02T13:27:34.491Z,17.00
2018-05-02T13:28:37.027Z,16.90
2018-05-02T13:29:39.581Z,16.90
2018-05-02T13:30:42.103Z,16.80
2018-05-02T13:31:45.424Z,16.80
2018-05-02T13:32:47.955Z,16.70
2018-05-02T13:33:51.247Z,16.90
2018-05-02T13:34:54.575Z,17.10
2018-05-02T13:35:57.097Z,17.00
2018-05-02T13:37:00.421Z,17.10
2018-05-02T13:38:02.975Z,17.10
2018-05-02T13:39:05.507Z,17.10
2018-05-02T13:40:08.793Z,17.00
2018-05-02T13:41:12.096Z,17.10
2018-05-02T13:42:14.627Z,17.10
2018-05-02T13:43:17.200Z,17.10
2018-05-02T13:44:19.726Z,17.20
2018-05-02T13:45:22.246Z,17.30
2018-05-02T13:46:25.534Z,17.50